createdAt,value
2018-09-30T05:23:27.058Z,272.00
2018-09-30T05:24:27.045Z,308.00
2018-09-30T05:25:27.077Z,344.00
2018-09-30T05:26:26.893Z,384.00
2018-09-30T05:27:26.921Z,420.00
2018-09-30T05:29:52.337Z,524.00
2018-09-30T05:30:52.087Z,576.00
2018-09-30T05:31:52.101Z,624.00
2018-09-30T05:32:52.055Z,680.00
2018-09-30T05:33:52.019Z,732.00
2018-09-30T05:34:51.916Z,792.00
2018-09-30T05:35:51.905Z,844.00
2018-09-30T05:36:51.900Z,904.00
2018-09-30T05:37:51.879Z,956.00
2018-09-30T05:38:51.902Z,1012.00
2018-09-30T05:39:51.882Z,1064.00
2018-09-30T05:40:51.848Z,1120.00
2018-09-30T05:41:51.889Z,1176.00
2018-09-30T05:42:51.856Z,1232.00
2018-09-30T05:43:51.816Z,1288.00
2018-09-30T05:44:52.065Z,1348.00
2018-09-30T05:45:51.794Z,1400.00
2018-09-30T05:46:51.789Z,1456.00
2018-09-30T05:47:51.829Z,1516.00
2018-09-30T05:48:51.795Z,1572.00
2018-09-30T05:49:51.905Z,1628.00
2018-09-30T05:50:53.029Z,1684.00
2018-09-30T05:51:51.759Z,1740.00
2018-09-30T05:55:50.112Z,1956.00
2018-09-30T05:56:49.862Z,2008.00
2018-09-30T05:57:49.852Z,2060.00
2018-09-30T05:58:49.950Z,2112.00
2018-09-30T05:59:49.738Z,2160.00
2018-09-30T06:00:49.766Z,2212.00
2018-09-30T06:01:49.720Z,2260.00
2018-09-30T06:02:49.719Z,2312.00
2018-09-30T06:03:50.671Z,2364.00
2018-09-30T06:04:49.775Z,2404.00
2018-09-30T06:05:49.679Z,2452.00
2018-09-30T06:06:49.808Z,2500.00
2018-09-30T06:07:49.726Z,2548.00
2018-09-30T06:08:49.682Z,2592.00
2018-09-30T06:09:49.629Z,2636.00
2018-09-30T06:10:49.690Z,2680.00
2018-09-30T06:11:49.658Z,2728.00
2018-09-30T06:12:50.499Z,2772.00
2018-09-30T06:13:49.653Z,2824.00
2018-09-30T06:14:49.576Z,2860.00
2018-09-30T06:15:49.648Z,2900.00
2018-09-30T06:16:49.576Z,2944.00
2018-09-30T06:17:49.546Z,2984.00
2018-09-30T06:18:49.531Z,3024.00
2018-09-30T06:19:49.526Z,3064.00
2018-09-30T06:20:49.522Z,3108.00
2018-09-30T06:21:49.513Z,3144.00
2018-09-30T06:22:49.504Z,3188.00
2018-09-30T06:23:49.475Z,3220.00
2018-09-30T06:24:49.523Z,3260.00
2018-09-30T06:25:49.567Z,3300.00
2018-09-30T06:26:49.592Z,3340.00
2018-09-30T06:27:49.496Z,3380.00
2018-09-30T06:28:49.446Z,3412.00
2018-09-30T06:29:49.421Z,3448.00
2018-09-30T06:30:49.406Z,3488.00
2018-09-30T06:31:49.396Z,3520.00
2018-09-30T06:32:49.382Z,3552.00
2018-09-30T06:34:00.035Z,3588.00
2018-09-30T06:34:59.158Z,3620.00
2018-09-30T06:35:49.615Z,3656.00
2018-09-30T06:36:49.372Z,3688.00
2018-09-30T06:37:49.514Z,3720.00
2018-09-30T06:38:49.418Z,3756.00
2018-09-30T06:39:49.331Z,3792.00
2018-09-30T06:40:49.289Z,3824.00
2018-09-30T06:41:49.298Z,3852.00
2018-09-30T06:42:50.062Z,3880.00
2018-09-30T06:43:49.274Z,3912.00
2018-09-30T06:44:49.333Z,3940.00
2018-09-30T06:45:49.246Z,3976.00
2018-09-30T06:46:49.227Z,4004.00
2018-09-30T06:47:49.212Z,4036.00
2018-09-30T06:48:49.210Z,4064.00
2018-09-30T06:49:49.218Z,4088.00
2018-09-30T06:50:49.281Z,4124.00
2018-09-30T06:51:49.203Z,4152.00
2018-09-30T06:52:49.161Z,4184.00
2018-09-30T06:53:49.153Z,4208.00
2018-09-30T06:54:49.134Z,4240.00
2018-09-30T06:55:49.121Z,4272.00
2018-09-30T06:56:49.118Z,4296.00
2018-09-30T06:57:49.148Z,4328.00
2018-09-30T06:58:49.089Z,4356.00
2018-09-30T06:59:49.091Z,4384.00
2018-09-30T07:00:49.065Z,4412.00
2018-09-30T07:01:49.053Z,4436.00
2018-09-30T07:02:49.059Z,4472.00
2018-09-30T07:03:49.051Z,4492.00
2018-09-30T07:04:49.094Z,4520.00
2018-09-30T07:05:49.048Z,4548.00
2018-09-30T07:06:49.119Z,4576.00
2018-09-30T07:07:49.006Z,4612.00
2018-09-30T07:08:48.986Z,4644.00
2018-09-30T07:09:49.079Z,4680.00
2018-09-30T07:12:15.089Z,4780.00
2018-09-30T07:13:14.821Z,4816.00
2018-09-30T07:14:19.542Z,4860.00
2018-09-30T07:15:14.796Z,4900.00
2018-09-30T07:16:14.582Z,4944.00
2018-09-30T07:17:14.539Z,4980.00
2018-09-30T07:18:14.580Z,5020.00
2018-09-30T07:19:14.501Z,5060.00
2018-09-30T07:20:14.502Z,5104.00
2018-09-30T07:21:14.478Z,5148.00
2018-09-30T07:22:14.619Z,5192.00
2018-09-30T07:23:14.510Z,5232.00
2018-09-30T07:24:14.489Z,5276.00
2018-09-30T07:25:14.443Z,5328.00
2018-09-30T07:26:14.639Z,5368.00
2018-09-30T07:27:14.438Z,5416.00
2018-09-30T07:28:14.430Z,5460.00
2018-09-30T07:29:14.461Z,5496.00
2018-09-30T07:30:14.441Z,5540.00
2018-09-30T07:31:14.379Z,5572.00
2018-09-30T07:32:14.369Z,5608.00
2018-09-30T07:33:14.377Z,5648.00
2018-09-30T07:34:14.375Z,5688.00
2018-09-30T07:35:14.331Z,5728.00
2018-09-30T07:36:14.339Z,5792.00
2018-09-30T07:37:14.307Z,5864.00
2018-09-30T07:38:14.294Z,6028.00
2018-09-30T07:39:14.404Z,17152.00
2018-09-30T07:40:14.364Z,34528.00
2018-09-30T07:41:14.266Z,37536.00
2018-09-30T07:42:14.250Z,38048.00
2018-09-30T07:43:14.397Z,38656.00
2018-09-30T07:44:14.279Z,39136.00
2018-09-30T07:45:14.387Z,39744.00
2018-09-30T07:46:14.438Z,39904.00
2018-09-30T07:47:14.235Z,40384.00
2018-09-30T07:48:14.225Z,40992.00
2018-09-30T07:49:14.260Z,43360.00
2018-09-30T07:50:14.166Z,46528.00
2018-09-30T07:51:14.211Z,49056.00
2018-09-30T07:52:14.171Z,53728.00
2018-09-30T07:53:14.361Z,51264.00
2018-09-30T07:54:14.286Z,50304.00
2018-09-30T07:55:14.140Z,52224.00
2018-09-30T07:56:14.127Z,52320.00
2018-09-30T07:57:14.120Z,47328.00
2018-09-30T07:58:14.175Z,44608.00
2018-09-30T08:00:39.474Z,55392.00
2018-09-30T08:01:38.814Z,60096.00
2018-09-30T08:02:40.151Z,77600.00
2018-09-30T08:03:40.875Z,91648.00
2018-09-30T08:04:51.199Z,90176.00
2018-09-30T08:05:38.844Z,90112.00
2018-09-30T08:06:38.944Z,82656.00
2018-09-30T08:07:38.986Z,79264.00
2018-09-30T08:08:39.487Z,78144.00
2018-09-30T08:09:39.679Z,77536.00
2018-09-30T08:10:38.791Z,76192.00
2018-09-30T08:11:38.668Z,57600.00
2018-09-30T08:12:38.650Z,54048.00
2018-09-30T08:13:38.647Z,64160.00
2018-09-30T08:14:38.634Z,63872.00
2018-09-30T08:15:38.608Z,63680.00
2018-09-30T08:16:38.728Z,64032.00
2018-09-30T08:17:38.623Z,66144.00
2018-09-30T08:18:38.582Z,66976.00
2018-09-30T08:19:38.605Z,69312.00
2018-09-30T08:20:38.550Z,69824.00
2018-09-30T08:21:38.535Z,69824.00
2018-09-30T08:22:38.639Z,69344.00
2018-09-30T08:23:38.513Z,68608.00
2018-09-30T08:24:38.547Z,68416.00
2018-09-30T08:25:38.777Z,67744.00
2018-09-30T08:26:38.499Z,67360.00
2018-09-30T08:27:38.518Z,66240.00
2018-09-30T08:28:38.464Z,66080.00
2018-09-30T08:29:38.452Z,67392.00
2018-09-30T08:30:38.524Z,68576.00
2018-09-30T08:31:38.447Z,70560.00
2018-09-30T08:32:38.426Z,71808.00
2018-09-30T08:33:38.511Z,70688.00
2018-09-30T08:34:38.397Z,71712.00
2018-09-30T08:35:38.424Z,71296.00
2018-09-30T08:36:38.402Z,71744.00
2018-09-30T08:37:38.376Z,73120.00
2018-09-30T08:38:38.351Z,73216.00
2018-09-30T08:39:38.418Z,72320.00
2018-09-30T08:40:38.351Z,73600.00
2018-09-30T08:41:38.327Z,72672.00
2018-09-30T08:42:38.797Z,73440.00
2018-09-30T08:43:38.337Z,73024.00
2018-09-30T08:44:38.299Z,73120.00
2018-09-30T08:45:38.323Z,72800.00
2018-09-30T08:46:38.312Z,71232.00
2018-09-30T08:47:38.324Z,72096.00
2018-09-30T08:48:38.280Z,71552.00
2018-09-30T08:49:38.239Z,72672.00
2018-09-30T08:50:38.227Z,71200.00
2018-09-30T08:51:38.221Z,70496.00
2018-09-30T08:52:38.205Z,68832.00
2018-09-30T08:53:38.219Z,68992.00
2018-09-30T08:54:38.222Z,68224.00
2018-09-30T08:55:38.203Z,68672.00
2018-09-30T08:56:38.436Z,72896.00
2018-09-30T08:57:38.157Z,73888.00
2018-09-30T08:58:40.133Z,75552.00
2018-09-30T08:59:38.146Z,76800.00
2018-09-30T09:00:38.144Z,75776.00
2018-09-30T09:01:38.127Z,75520.00
2018-09-30T09:02:38.122Z,72640.00
2018-09-30T09:03:38.121Z,72992.00
2018-09-30T09:04:38.169Z,73728.00
2018-09-30T09:05:38.147Z,73792.00
2018-09-30T09:06:38.085Z,73216.00
2018-09-30T09:07:38.072Z,75936.00
2018-09-30T09:08:38.063Z,77856.00
2018-09-30T09:09:38.081Z,76128.00
2018-09-30T09:10:38.068Z,77120.00
2018-09-30T09:11:38.006Z,78304.00
2018-09-30T09:12:37.992Z,75552.00
2018-09-30T09:13:37.985Z,73504.00
2018-09-30T09:14:38.075Z,73664.00
2018-09-30T09:15:38.316Z,74464.00
2018-09-30T09:16:37.956Z,77472.00
2018-09-30T09:17:38.103Z,78592.00
2018-09-30T09:18:37.944Z,80672.00
2018-09-30T09:19:37.955Z,81056.00
2018-09-30T09:20:37.916Z,79168.00
2018-09-30T09:21:37.923Z,48416.00
2018-09-30T09:22:37.905Z,10340.00
2018-09-30T09:23:37.904Z,6924.00
2018-09-30T09:24:38.021Z,6888.00
2018-09-30T09:25:38.226Z,6900.00
2018-09-30T09:26:38.175Z,6912.00
2018-09-30T09:27:37.945Z,6904.00
2018-09-30T09:28:37.831Z,6900.00
2018-09-30T09:29:37.846Z,6884.00
2018-09-30T09:30:37.809Z,6892.00
2018-09-30T09:31:37.869Z,6908.00
2018-09-30T09:32:37.927Z,6924.00
2018-09-30T09:33:38.140Z,6944.00
2018-09-30T09:34:37.779Z,6960.00
2018-09-30T09:35:42.766Z,6972.00
2018-09-30T09:36:37.926Z,6984.00
2018-09-30T09:37:38.954Z,6988.00
2018-09-30T09:40:49.979Z,7004.00
2018-09-30T09:41:49.023Z,7008.00
2018-09-30T09:42:48.975Z,7008.00
2018-09-30T09:43:49.286Z,7016.00
2018-09-30T09:44:49.081Z,7024.00
2018-09-30T09:45:49.237Z,7036.00
2018-09-30T09:46:48.930Z,7048.00
2018-09-30T09:47:49.008Z,7060.00
2018-09-30T09:48:49.044Z,7080.00
2018-09-30T09:49:49.165Z,7100.00
2018-09-30T09:50:48.909Z,7116.00
2018-09-30T09:51:50.521Z,7124.00
2018-09-30T10:06:11.904Z,7168.00
2018-09-30T10:07:11.618Z,7192.00
2018-09-30T10:08:11.584Z,7212.00
2018-09-30T10:09:11.630Z,7236.00
2018-09-30T10:10:12.116Z,7256.00
2018-09-30T10:11:11.276Z,7272.00
2018-09-30T10:12:13.252Z,7296.00
2018-09-30T10:13:11.464Z,7320.00
2018-09-30T10:14:11.414Z,7356.00
2018-09-30T10:15:17.443Z,7388.00
2018-09-30T10:16:11.246Z,7404.00
2018-09-30T10:17:12.234Z,7424.00
2018-09-30T10:18:11.342Z,7432.00
2018-09-30T10:19:15.096Z,7444.00
2018-09-30T10:20:13.207Z,7464.00
2018-09-30T10:21:11.219Z,7480.00
2018-09-30T10:22:11.250Z,7492.00
2018-09-30T10:23:11.219Z,7508.00
2018-09-30T10:24:11.159Z,7520.00
2018-09-30T10:25:11.151Z,7528.00
2018-09-30T10:26:11.178Z,7536.00
2018-09-30T10:27:11.179Z,7544.00
2018-09-30T10:28:11.079Z,7552.00
2018-09-30T10:29:11.083Z,7552.00
2018-09-30T10:30:11.249Z,7540.00
2018-09-30T10:31:11.078Z,7532.00
2018-09-30T10:32:11.079Z,7516.00
2018-09-30T10:33:11.089Z,7504.00
2018-09-30T10:36:14.037Z,7500.00
2018-09-30T10:48:44.692Z,7448.00
2018-09-30T10:49:44.651Z,7444.00
2018-09-30T11:05:05.613Z,35424.00
2018-09-30T11:06:05.435Z,52640.00
2018-09-30T11:07:05.319Z,69024.00
2018-09-30T11:08:05.215Z,84704.00
2018-09-30T11:09:05.313Z,91488.00
2018-09-30T11:10:05.858Z,90464.00
2018-09-30T11:18:14.469Z,86208.00
2018-09-30T11:31:06.207Z,86176.00
2018-09-30T11:32:05.026Z,88960.00
2018-09-30T11:38:15.645Z,92448.00
2018-09-30T11:44:37.054Z,84000.00
2018-09-30T11:45:36.708Z,82848.00
2018-09-30T11:46:38.881Z,79776.00
2018-09-30T11:47:36.202Z,79584.00
2018-09-30T11:48:36.255Z,83616.00
2018-09-30T11:49:36.059Z,86880.00
2018-09-30T11:50:36.453Z,86080.00
2018-09-30T11:51:36.369Z,85536.00
2018-09-30T11:52:37.178Z,85312.00
2018-09-30T11:53:37.272Z,81408.00
2018-09-30T11:54:36.009Z,78976.00
2018-09-30T11:55:36.691Z,80960.00
2018-09-30T11:56:36.178Z,82080.00
2018-09-30T11:57:35.998Z,84416.00
2018-09-30T11:58:35.970Z,85664.00
2018-09-30T11:59:37.895Z,83456.00
2018-09-30T12:01:53.898Z,86464.00
2018-09-30T12:02:53.513Z,87808.00
2018-09-30T12:03:53.460Z,85568.00
2018-09-30T12:04:53.495Z,81824.00
2018-09-30T12:05:53.365Z,80320.00
2018-09-30T12:06:53.336Z,82656.00
2018-09-30T12:07:53.314Z,86144.00
2018-09-30T12:08:53.305Z,83296.00
2018-09-30T12:09:53.349Z,82048.00
2018-09-30T12:10:54.281Z,82528.00
2018-09-30T12:11:53.290Z,85024.00
2018-09-30T12:15:04.029Z,79584.00
2018-09-30T12:16:03.591Z,80640.00
2018-09-30T12:17:03.521Z,80256.00
2018-09-30T12:18:03.507Z,76544.00
2018-09-30T12:19:03.724Z,74272.00
2018-09-30T12:20:03.834Z,74752.00
2018-09-30T12:27:21.341Z,79008.00
2018-09-30T12:28:21.399Z,77280.00
2018-09-30T12:29:21.095Z,78304.00
2018-09-30T12:36:14.094Z,75712.00
2018-09-30T12:37:13.597Z,76160.00
2018-09-30T12:48:51.615Z,72448.00
2018-09-30T12:49:50.776Z,71392.00
2018-09-30T12:50:50.490Z,71584.00
2018-09-30T12:51:50.588Z,68960.00
2018-09-30T12:52:50.507Z,69536.00
2018-09-30T12:53:50.521Z,67200.00
2018-09-30T12:54:50.464Z,67392.00
2018-09-30T12:55:50.692Z,66400.00
2018-09-30T12:56:51.438Z,64768.00
2018-09-30T12:57:50.490Z,64352.00
2018-09-30T12:58:50.432Z,64064.00
2018-09-30T12:59:51.104Z,64096.00
2018-09-30T13:00:50.801Z,63200.00
2018-09-30T13:01:51.219Z,63968.00
2018-09-30T13:02:50.319Z,61888.00
2018-09-30T13:06:16.451Z,61728.00
2018-09-30T13:07:16.569Z,61152.00
2018-09-30T13:08:27.382Z,59968.00
2018-09-30T13:09:16.275Z,56416.00
2018-09-30T13:10:16.266Z,53408.00
2018-09-30T13:11:16.314Z,53632.00
2018-09-30T13:12:16.241Z,55136.00
2018-09-30T13:13:16.243Z,57856.00
2018-09-30T13:14:19.256Z,58816.00
2018-09-30T13:15:16.208Z,57664.00
2018-09-30T13:16:16.199Z,56928.00
2018-09-30T13:17:16.208Z,57600.00
2018-09-30T13:18:16.373Z,58368.00
2018-09-30T13:19:16.342Z,57952.00
2018-09-30T13:20:16.234Z,57504.00
2018-09-30T13:21:16.202Z,56928.00
2018-09-30T13:22:16.231Z,57216.00
2018-09-30T13:23:16.172Z,57664.00
2018-09-30T13:24:16.205Z,56256.00
2018-09-30T13:25:16.160Z,54944.00
2018-09-30T13:26:16.113Z,54880.00
2018-09-30T13:27:16.103Z,53920.00
2018-09-30T13:28:16.110Z,54688.00
2018-09-30T13:29:16.133Z,54016.00
2018-09-30T13:30:16.073Z,53056.00
2018-09-30T13:31:16.054Z,52160.00
2018-09-30T13:32:16.058Z,52544.00
2018-09-30T13:33:16.109Z,51680.00
2018-09-30T13:34:16.043Z,50304.00
2018-09-30T13:35:16.021Z,50272.00
2018-09-30T13:36:16.002Z,49824.00
2018-09-30T13:37:16.060Z,50464.00
2018-09-30T13:38:15.987Z,51552.00
2018-09-30T13:39:16.030Z,52928.00
2018-09-30T13:40:16.108Z,53120.00
2018-09-30T13:41:16.032Z,50496.00
2018-09-30T13:42:15.933Z,47872.00
2018-09-30T13:43:15.941Z,46752.00
2018-09-30T13:44:16.002Z,47584.00
2018-09-30T13:45:16.006Z,47648.00
2018-09-30T13:46:16.065Z,47520.00
2018-09-30T13:47:15.880Z,47936.00
2018-09-30T13:48:15.885Z,49056.00
2018-09-30T13:49:15.968Z,48896.00
2018-09-30T13:50:15.857Z,47392.00
2018-09-30T13:51:15.890Z,47488.00
2018-09-30T13:52:15.945Z,48096.00
2018-09-30T13:53:15.829Z,47424.00
2018-09-30T13:54:15.844Z,46400.00
2018-09-30T13:55:15.885Z,45408.00
2018-09-30T13:56:15.845Z,44992.00
2018-09-30T13:57:15.870Z,45728.00
2018-09-30T13:58:15.802Z,44480.00
2018-09-30T13:59:15.842Z,44640.00
2018-09-30T14:00:15.756Z,44512.00
2018-09-30T14:01:15.753Z,44640.00
2018-09-30T14:02:15.793Z,44768.00
2018-09-30T14:03:15.768Z,43200.00
2018-09-30T14:04:15.729Z,41376.00
2018-09-30T14:05:15.872Z,41664.00
2018-09-30T14:06:15.831Z,39744.00
2018-09-30T14:07:16.439Z,32928.00
2018-09-30T14:08:15.690Z,26688.00
2018-09-30T14:09:15.651Z,14648.00
2018-09-30T14:10:15.669Z,7500.00
2018-09-30T14:11:15.667Z,7568.00
2018-09-30T14:12:15.785Z,12468.00
2018-09-30T14:13:15.727Z,20704.00
2018-09-30T14:14:15.719Z,28352.00
2018-09-30T14:15:16.436Z,25248.00
2018-09-30T14:16:15.589Z,13192.00
2018-09-30T14:17:15.923Z,7052.00
2018-09-30T14:18:15.569Z,6760.00
2018-09-30T14:19:15.596Z,6540.00
2018-09-30T14:20:16.127Z,6536.00
2018-09-30T14:21:15.548Z,6464.00
2018-09-30T14:22:15.526Z,6480.00
2018-09-30T14:23:15.516Z,6524.00
2018-09-30T14:24:15.508Z,6856.00
2018-09-30T14:25:15.509Z,6276.00
2018-09-30T14:27:43.119Z,6184.00
2018-09-30T14:28:29.523Z,6200.00
2018-09-30T14:29:29.697Z,6216.00
2018-09-30T14:30:29.995Z,6208.00
2018-09-30T14:31:29.487Z,6176.00
2018-09-30T14:32:29.481Z,6144.00
2018-09-30T14:33:29.470Z,6124.00
2018-09-30T14:34:29.460Z,6092.00
2018-09-30T14:35:29.456Z,6052.00
2018-09-30T14:36:29.454Z,6024.00
2018-09-30T14:37:29.429Z,5992.00
2018-09-30T14:38:29.533Z,5968.00
2018-09-30T14:39:29.407Z,5928.00
2018-09-30T14:40:29.394Z,5884.00
2018-09-30T14:41:29.405Z,5836.00
2018-09-30T14:42:29.373Z,5788.00
2018-09-30T14:43:29.361Z,5752.00
2018-09-30T14:44:29.360Z,5716.00
2018-09-30T14:45:29.358Z,5684.00
2018-09-30T14:46:29.346Z,5668.00
2018-09-30T14:47:29.317Z,5644.00
2018-09-30T14:48:29.321Z,5628.00
2018-09-30T14:49:29.523Z,5592.00
2018-09-30T14:50:29.377Z,5568.00
2018-09-30T14:51:29.313Z,5540.00
2018-09-30T14:52:29.263Z,5504.00
2018-09-30T14:53:29.254Z,5476.00
2018-09-30T14:54:29.369Z,5452.00
2018-09-30T14:55:29.440Z,5428.00
2018-09-30T14:56:30.048Z,5420.00
2018-09-30T14:57:29.279Z,5400.00
2018-09-30T14:58:29.228Z,5392.00
2018-09-30T14:59:29.189Z,5388.00
2018-09-30T15:00:29.188Z,5384.00
2018-09-30T15:01:29.217Z,5368.00
2018-09-30T15:02:29.188Z,5360.00
2018-09-30T15:03:29.142Z,5352.00
2018-09-30T15:04:29.137Z,5344.00
2018-09-30T15:05:29.117Z,5340.00
2018-09-30T15:06:29.141Z,5328.00
2018-09-30T15:07:29.100Z,5312.00
2018-09-30T15:08:29.103Z,5296.00
2018-09-30T15:09:29.083Z,5288.00
2018-09-30T15:10:29.115Z,5268.00
2018-09-30T15:11:29.069Z,5244.00
2018-09-30T15:12:29.054Z,5224.00
2018-09-30T15:13:29.034Z,5216.00
2018-09-30T15:14:29.025Z,5204.00
2018-09-30T15:15:29.025Z,5192.00
2018-09-30T15:16:29.285Z,5188.00
2018-09-30T15:17:29.008Z,5224.00
2018-09-30T15:18:29.360Z,5228.00
2018-09-30T15:19:29.024Z,5200.00
2018-09-30T15:20:28.957Z,5104.00
2018-09-30T15:21:28.952Z,5084.00
2018-09-30T15:22:29.029Z,5064.00
2018-09-30T15:23:28.927Z,5036.00
2018-09-30T15:24:28.915Z,5020.00
2018-09-30T15:25:28.912Z,5000.00
2018-09-30T15:26:28.941Z,4980.00
2018-09-30T15:27:28.964Z,4948.00
2018-09-30T15:28:29.319Z,4920.00
2018-09-30T15:29:28.858Z,4892.00
2018-09-30T15:30:28.842Z,4876.00
2018-09-30T15:31:28.836Z,4864.00
2018-09-30T15:32:28.887Z,4848.00
2018-09-30T15:33:28.837Z,4848.00
2018-09-30T15:34:28.809Z,4824.00
2018-09-30T15:35:28.839Z,4776.00
2018-09-30T15:36:28.791Z,4732.00
2018-09-30T15:37:28.766Z,4688.00
2018-09-30T15:38:28.859Z,4652.00
2018-09-30T15:39:28.761Z,4624.00
2018-09-30T15:40:29.444Z,4600.00
2018-09-30T15:41:28.761Z,4576.00
2018-09-30T15:42:28.709Z,4540.00
2018-09-30T15:43:28.757Z,4516.00
2018-09-30T15:44:28.937Z,4484.00
2018-09-30T15:46:54.877Z,4424.00
2018-09-30T15:47:54.645Z,4396.00
2018-09-30T15:48:54.369Z,4372.00
2018-09-30T15:49:54.416Z,4344.00
2018-09-30T15:50:54.398Z,4316.00
2018-09-30T15:51:54.321Z,4284.00
2018-09-30T15:52:54.302Z,4260.00
2018-09-30T15:53:54.287Z,4220.00
2018-09-30T15:54:54.288Z,4184.00
2018-09-30T15:55:54.247Z,4148.00
2018-09-30T15:56:54.346Z,4120.00
2018-09-30T15:58:05.339Z,4088.00
2018-09-30T15:58:54.494Z,4056.00
2018-09-30T16:00:04.699Z,4028.00
2018-09-30T16:00:54.344Z,4000.00
2018-09-30T16:01:54.230Z,3964.00
2018-09-30T16:02:54.308Z,3936.00
2018-09-30T16:03:54.244Z,3896.00
2018-09-30T16:04:54.150Z,3856.00
2018-09-30T16:07:07.976Z,3776.00
2018-09-30T16:08:05.991Z,3740.00
2018-09-30T16:09:05.953Z,3696.00
2018-09-30T16:10:15.710Z,3664.00
2018-09-30T16:11:06.066Z,3620.00
2018-09-30T16:12:05.944Z,3576.00
2018-09-30T16:13:05.976Z,3528.00
2018-09-30T16:14:05.887Z,3476.00
2018-09-30T16:15:05.902Z,3424.00
2018-09-30T16:16:05.889Z,3368.00
2018-09-30T16:17:05.978Z,3316.00
2018-09-30T16:18:05.890Z,3148.00
2018-09-30T16:19:05.842Z,2860.00
2018-09-30T16:20:05.823Z,2728.00
2018-09-30T16:21:05.829Z,2688.00
2018-09-30T16:22:05.799Z,2696.00
2018-09-30T16:23:05.808Z,2600.00
2018-09-30T16:24:05.790Z,2436.00
2018-09-30T16:25:05.833Z,2360.00
2018-09-30T16:26:05.766Z,2296.00
2018-09-30T16:27:05.758Z,2232.00
2018-09-30T16:28:05.807Z,2180.00
2018-09-30T16:30:19.390Z,2000.00
2018-09-30T16:31:17.335Z,1932.00
2018-09-30T16:32:17.284Z,1876.00
2018-09-30T16:33:17.181Z,1824.00
2018-09-30T16:34:17.165Z,1768.00
2018-09-30T16:35:17.235Z,1720.00
2018-09-30T16:36:17.139Z,1676.00
2018-09-30T16:37:17.129Z,1628.00
2018-09-30T16:38:17.192Z,1580.00
2018-09-30T16:39:17.095Z,1536.00
2018-09-30T16:40:17.079Z,1488.00
2018-09-30T16:41:17.736Z,1440.00
2018-09-30T16:42:18.767Z,1396.00
2018-09-30T16:43:17.123Z,1352.00
2018-09-30T16:44:17.071Z,1308.00
2018-09-30T16:45:17.089Z,1264.00
2018-09-30T16:47:41.190Z,1156.00
2018-09-30T16:48:40.496Z,1108.00
2018-09-30T16:49:40.553Z,1068.00
2018-09-30T16:50:40.619Z,1024.00
2018-09-30T16:51:40.343Z,976.00
2018-09-30T16:52:40.487Z,936.00
2018-09-30T16:53:40.392Z,892.00
2018-09-30T16:54:40.328Z,852.00
2018-09-30T16:55:40.411Z,812.00
2018-09-30T16:56:40.392Z,772.00
2018-09-30T16:57:40.382Z,732.00
2018-09-30T16:58:42.163Z,692.00
2018-09-30T17:09:04.732Z,320.00
2018-09-30T17:20:45.996Z,68.00
2018-09-30T17:21:45.595Z,60.00
2018-09-30T17:22:45.543Z,48.00
2018-09-30T17:23:45.562Z,40.00
2018-09-30T17:24:45.521Z,36.00
2018-09-30T17:25:45.419Z,28.00
2018-09-30T17:26:45.478Z,24.00
2018-09-30T17:27:45.477Z,20.00
2018-09-30T17:28:45.457Z,16.00
2018-09-30T17:29:45.398Z,16.00
2018-09-30T17:30:45.474Z,12.00
2018-09-30T17:31:45.402Z,12.00
2018-09-30T17:32:45.326Z,8.00
2018-09-30T17:33:45.340Z,8.00
2018-09-30T17:34:45.397Z,4.00
2018-09-30T17:35:45.386Z,4.00
2018-09-30T17:36:45.279Z,4.00
2018-09-30T17:37:45.356Z,0.00
2018-09-30T17:38:45.270Z,4.00
2018-09-30T17:39:45.409Z,4.00
2018-09-30T17:40:48.259Z,4.00
2018-09-30T17:41:57.101Z,0.00
2018-09-30T17:42:46.926Z,0.00
2018-09-30T17:43:47.957Z,0.00
2018-09-30T17:44:45.333Z,0.00
2018-09-30T17:45:45.519Z,0.00
2018-09-30T18:03:40.030Z,0.00
2018-09-30T18:16:33.302Z,0.00
2018-09-30T18:17:33.071Z,0.00
2018-09-30T18:18:33.054Z,0.00
2018-09-30T18:19:32.955Z,0.00
2018-09-30T18:20:32.926Z,0.00
2018-09-30T18:21:33.616Z,0.00
2018-09-30T18:22:32.903Z,0.00
2018-09-30T18:23:32.930Z,0.00
2018-09-30T18:24:32.891Z,0.00
2018-09-30T18:25:32.864Z,0.00
2018-09-30T18:26:32.893Z,0.00
2018-09-30T18:27:32.808Z,0.00
2018-09-30T18:28:32.876Z,0.00
2018-09-30T18:29:32.792Z,0.00
2018-09-30T18:30:32.776Z,0.00
2018-09-30T18:31:32.772Z,0.00
2018-09-30T18:32:32.815Z,0.00
2018-09-30T18:33:32.742Z,0.00
2018-09-30T18:34:32.773Z,0.00
2018-09-30T18:35:32.753Z,0.00
2018-09-30T19:04:21.525Z,0.00
2018-09-30T19:05:21.157Z,0.00
2018-09-30T19:06:21.117Z,0.00
2018-09-30T19:08:15.471Z,0.00
2018-09-30T19:09:15.281Z,0.00
2018-09-30T19:10:15.857Z,0.00
2018-09-30T19:11:15.164Z,0.00
2018-09-30T19:12:15.069Z,0.00
2018-09-30T19:13:14.993Z,0.00
2018-09-30T19:14:15.052Z,0.00
2018-09-30T19:15:15.032Z,0.00
2018-09-30T19:16:15.185Z,0.00
2018-09-30T19:19:13.804Z,0.00
2018-09-30T19:20:13.242Z,0.00
2018-09-30T19:21:13.236Z,0.00
2018-09-30T19:22:13.183Z,0.00
2018-09-30T19:23:13.102Z,0.00
2018-09-30T19:24:13.120Z,0.00
2018-09-30T19:25:13.101Z,0.00
2018-09-30T19:26:13.063Z,0.00
2018-09-30T19:27:13.058Z,0.00
2018-09-30T19:28:13.057Z,0.00
2018-09-30T19:29:13.042Z,0.00
2018-09-30T19:30:13.052Z,0.00
2018-09-30T19:31:14.028Z,0.00
2018-09-30T19:32:13.013Z,0.00
2018-09-30T19:33:13.122Z,0.00
2018-09-30T19:38:53.910Z,0.00
2018-09-30T19:39:53.478Z,0.00
2018-09-30T19:40:53.447Z,0.00
2018-09-30T19:41:53.524Z,0.00
2018-09-30T19:42:53.465Z,0.00
2018-09-30T19:43:53.316Z,0.00
2018-09-30T19:44:53.323Z,0.00
2018-09-30T19:45:53.273Z,0.00
2018-09-30T19:46:53.293Z,0.00
2018-09-30T19:47:53.256Z,0.00
2018-09-30T19:48:53.393Z,0.00
2018-09-30T19:49:53.237Z,0.00
2018-09-30T19:50:53.266Z,0.00
2018-09-30T19:51:53.344Z,0.00
2018-09-30T19:52:53.342Z,0.00
2018-09-30T19:53:53.257Z,0.00
2018-09-30T19:54:53.193Z,0.00
2018-09-30T20:04:21.013Z,0.00
2018-09-30T20:05:20.622Z,0.00
2018-09-30T20:06:20.532Z,0.00
2018-09-30T20:07:20.510Z,0.00
2018-09-30T20:08:20.607Z,0.00
2018-09-30T20:09:20.598Z,0.00
2018-09-30T20:10:20.626Z,0.00
2018-09-30T20:11:20.449Z,0.00
2018-09-30T20:12:20.391Z,0.00
2018-09-30T20:13:20.378Z,0.00
2018-09-30T20:14:20.587Z,0.00
2018-09-30T20:15:21.244Z,0.00
2018-09-30T20:17:38.683Z,0.00
2018-09-30T20:18:38.252Z,0.00
2018-09-30T20:19:38.272Z,0.00
2018-09-30T20:20:38.218Z,0.00
2018-09-30T20:21:38.103Z,0.00
2018-09-30T20:22:38.119Z,0.00
2018-09-30T20:23:38.059Z,0.00
2018-09-30T20:24:38.069Z,0.00
2018-09-30T20:25:38.086Z,0.00
2018-09-30T20:26:38.046Z,0.00
2018-09-30T20:27:38.044Z,0.00
2018-09-30T20:30:57.795Z,0.00
2018-09-30T20:31:57.389Z,0.00
2018-09-30T20:32:57.375Z,0.00
2018-09-30T20:33:57.352Z,0.00
2018-09-30T20:34:57.241Z,0.00
2018-09-30T20:35:57.218Z,0.00
2018-09-30T20:36:57.367Z,0.00
2018-09-30T20:37:57.209Z,0.00
2018-09-30T20:38:57.287Z,0.00
2018-09-30T20:39:57.179Z,0.00
2018-09-30T20:40:57.874Z,0.00
2018-09-30T20:41:57.199Z,0.00
2018-09-30T20:42:57.150Z,0.00
2018-09-30T20:43:57.134Z,0.00
2018-09-30T20:44:57.160Z,0.00
2018-09-30T20:45:57.115Z,0.00
2018-09-30T20:46:57.145Z,0.00
2018-09-30T20:47:57.133Z,0.00
2018-09-30T20:48:57.116Z,0.00
2018-09-30T20:49:57.072Z,0.00
2018-09-30T20:50:57.061Z,0.00
2018-09-30T20:51:57.086Z,0.00
2018-09-30T20:52:57.039Z,0.00
2018-09-30T20:53:57.081Z,0.00
2018-09-30T20:54:57.055Z,0.00
2018-09-30T20:55:57.071Z,0.00
2018-09-30T20:56:57.065Z,0.00
2018-09-30T20:57:57.002Z,0.00
2018-09-30T20:58:56.995Z,0.00
2018-09-30T20:59:56.971Z,0.00
2018-09-30T21:00:56.965Z,0.00
2018-09-30T21:01:56.941Z,0.00
2018-09-30T21:02:56.943Z,0.00
2018-09-30T21:03:56.920Z,0.00
2018-09-30T21:04:56.992Z,0.00
2018-09-30T21:05:56.896Z,0.00
2018-09-30T21:06:56.891Z,0.00